WEATHER/FLIGHT PLANNING

Hattiesburg Radar

 

 

 

 

Weather Links

Flight Planning Links

 

METAR

2019/11/20 07:53 KHBG 200753Z AUTO 00000KT 10SM CLR 04/03 A3010 RMK AO2 SLP193 T00440033

TAF

2019/11/20 06:22 TAF KHBG 200520Z 2006/2106 00000KT P6SM SKC FM201000 00000KT 3SM BR SKC FM201400 10006KT P6SM FEW250